Portada
METAR-TAF:

METAR-TAF

Aeroports :

Rajkot, Índia

latitud: 22-18N, longitud: 070-47E, altitud: 134 m

Observació

L'informe es va fer fa 2 hores i 48 minuts, a les 18:00 UTC
Vent 4 kt del Nord-Est
Temperatura 15°C
Humitat 51%
Pressió 1016 hPa
Visibilitat: 6000 m

METAR: VARK 261800Z 05004KT 6000 NSC 15/05 Q1016 NOSIG

Hora: 02:18 (20:48 UTC)

Pronòstic

L'informe es va fer fa 48 minuts, a les 20:00 UTC
Pronòstic vàlid del 26 a les 21 UTC al 27 a les 06 UTC
Vent 6 kt del Nord-Est
Visibilitat: 4000 m
fum
Evolucionant progressivament
l' 27 a les 01 UTC al 27 a les 03 UTC
Visibilitat: 3000 m
calitja, fum
Evolucionant progressivament
l' 27 a les 04 UTC al 27 a les 06 UTC
Vent 8 kt del Est/Nord-Est
Visibilitat: 5000 m
fum

TAF: VARK 262000Z 2621/2706 05006KT 4000 FU NSC BECMG 2701/2703 3000 HZ FU BECMG 2704/2706 07008KT 5000 FU

Observacions i pronòstics meteorològics de més de 4000 aeroports (METAR i TAF).

Les estacions disponibles són els punts grocs i vermells al mapa.

Posi el ratolí al punt desitjat per veure el nom de l'estació.

Feu clic per veure les observacions i els pronòstics meteorològics.

Per canviar el mapa: feu clic els botons verds amb una creu de color negre per apropar; al botó verd amb un guió per allunyar la imatge; o en les fletxes verdes per a mapes adjacents.


METAR-TAF: